createdAt,value
2019-03-20T00:00:30.294Z,8.80
2019-03-20T00:01:43.476Z,8.80
2019-03-20T00:02:41.214Z,8.80
2019-03-20T00:03:45.753Z,8.80
2019-03-20T00:04:50.283Z,8.70
2019-03-20T00:05:54.884Z,8.70
2019-03-20T00:07:00.073Z,8.70
2019-03-20T00:08:04.806Z,8.70
2019-03-20T00:09:09.331Z,8.70
2019-03-20T00:10:13.859Z,8.70
2019-03-20T00:11:18.384Z,8.70
2019-03-20T00:12:22.918Z,8.60
2019-03-20T00:13:27.550Z,8.60
2019-03-20T00:14:32.037Z,8.60
2019-03-20T00:15:36.689Z,8.60
2019-03-20T00:16:41.225Z,8.60
2019-03-20T00:17:45.690Z,8.60
2019-03-20T00:18:50.552Z,8.60
2019-03-20T00:19:55.094Z,8.60
2019-03-20T00:20:59.624Z,8.60
2019-03-20T00:22:04.737Z,8.60
2019-03-20T00:23:09.272Z,8.60
2019-03-20T00:24:13.769Z,8.60
2019-03-20T00:25:18.257Z,8.60
2019-03-20T00:26:22.725Z,8.60
2019-03-20T00:27:27.191Z,8.60
2019-03-20T00:28:31.654Z,8.60
2019-03-20T00:29:36.151Z,8.60
2019-03-20T00:30:40.603Z,8.60
2019-03-20T00:31:45.292Z,8.60
2019-03-20T00:32:49.818Z,8.60
2019-03-20T00:33:54.270Z,8.60
2019-03-20T00:35:01.169Z,8.50
2019-03-20T00:36:05.051Z,8.50
2019-03-20T00:37:09.743Z,8.50
2019-03-20T00:38:14.298Z,8.50
2019-03-20T00:39:18.746Z,8.50
2019-03-20T00:40:23.234Z,8.50
2019-03-20T00:41:27.712Z,8.50
2019-03-20T00:42:32.260Z,8.40
2019-03-20T00:43:36.917Z,8.40
2019-03-20T00:44:41.412Z,8.40
2019-03-20T00:45:45.912Z,8.40
2019-03-20T00:46:50.617Z,8.40
2019-03-20T00:47:55.086Z,8.40
2019-03-20T00:48:59.619Z,8.40
2019-03-20T00:50:06.132Z,8.40
2019-03-20T00:51:10.613Z,8.40
2019-03-20T00:52:15.093Z,8.40
2019-03-20T00:53:19.559Z,8.40
2019-03-20T00:54:24.018Z,8.40
2019-03-20T00:55:28.514Z,8.30
2019-03-20T00:56:32.964Z,8.30
2019-03-20T00:57:37.804Z,8.30
2019-03-20T00:58:42.294Z,8.30
2019-03-20T00:59:46.929Z,8.30
2019-03-20T01:00:51.414Z,8.30
2019-03-20T01:01:55.962Z,8.20
2019-03-20T01:03:00.615Z,8.20
2019-03-20T01:04:05.152Z,8.20
2019-03-20T01:05:12.758Z,8.10
2019-03-20T01:06:15.941Z,8.10
2019-03-20T01:07:20.418Z,8.10
2019-03-20T01:08:25.084Z,8.10
2019-03-20T01:09:29.548Z,8.10
2019-03-20T01:10:34.016Z,8.00
2019-03-20T01:11:38.475Z,8.00
2019-03-20T01:12:43.024Z,8.00
2019-03-20T01:13:47.473Z,8.00
2019-03-20T01:14:51.967Z,8.00
2019-03-20T01:15:56.772Z,7.90
2019-03-20T01:17:01.264Z,7.90
2019-03-20T01:18:05.804Z,7.90
2019-03-20T01:19:10.286Z,7.90
2019-03-20T01:20:19.406Z,7.90
2019-03-20T01:21:23.941Z,7.90
2019-03-20T01:22:28.432Z,7.80
2019-03-20T01:23:32.973Z,7.80
2019-03-20T01:24:37.468Z,7.80
2019-03-20T01:25:41.939Z,7.80
2019-03-20T01:26:46.514Z,7.80
2019-03-20T01:27:50.975Z,7.80
2019-03-20T01:28:55.516Z,7.80
2019-03-20T01:30:00.435Z,7.80
2019-03-20T01:31:05.099Z,7.80
2019-03-20T01:32:09.583Z,7.70
2019-03-20T01:33:14.819Z,7.70
2019-03-20T01:34:19.432Z,7.70
2019-03-20T01:35:24.346Z,7.70
2019-03-20T01:36:29.143Z,7.70
2019-03-20T01:37:33.777Z,7.70
2019-03-20T01:38:38.285Z,7.70
2019-03-20T01:39:42.789Z,7.70
2019-03-20T01:40:47.333Z,7.70
2019-03-20T01:41:51.803Z,7.70
2019-03-20T01:42:56.356Z,7.70
2019-03-20T01:44:00.856Z,7.60
2019-03-20T01:45:07.010Z,7.60
2019-03-20T01:46:11.586Z,7.60
2019-03-20T01:47:16.052Z,7.60
2019-03-20T01:48:20.539Z,7.60
2019-03-20T01:49:25.018Z,7.60
2019-03-20T01:50:29.485Z,7.60
2019-03-20T01:51:33.949Z,7.50
2019-03-20T01:52:38.402Z,7.50
2019-03-20T01:53:42.901Z,7.50
2019-03-20T01:54:47.417Z,7.50
2019-03-20T01:55:51.893Z,7.40
2019-03-20T01:56:56.356Z,7.40
2019-03-20T01:58:00.834Z,7.40
2019-03-20T01:59:05.386Z,7.30
2019-03-20T02:00:11.305Z,7.30
2019-03-20T02:01:15.775Z,7.30
2019-03-20T02:02:20.328Z,7.20
2019-03-20T02:03:24.845Z,7.20
2019-03-20T02:04:29.381Z,7.20
2019-03-20T02:05:36.259Z,7.20
2019-03-20T02:06:40.045Z,7.20
2019-03-20T02:07:44.601Z,7.10
2019-03-20T02:08:49.254Z,7.10
2019-03-20T02:09:53.773Z,7.10
2019-03-20T02:10:58.258Z,7.10
2019-03-20T02:12:02.719Z,7.10
2019-03-20T02:13:07.248Z,7.10
2019-03-20T02:14:11.711Z,7.10
2019-03-20T02:15:19.469Z,7.10
2019-03-20T02:16:23.940Z,7.10
2019-03-20T02:17:28.428Z,7.10
2019-03-20T02:18:32.898Z,7.10
2019-03-20T02:19:37.384Z,7.10
2019-03-20T02:20:41.928Z,7.10
2019-03-20T02:21:46.445Z,7.10
2019-03-20T02:22:50.981Z,7.00
2019-03-20T02:23:55.450Z,7.00
2019-03-20T02:24:59.926Z,7.00
2019-03-20T02:26:04.554Z,7.00
2019-03-20T02:27:09.478Z,7.00
2019-03-20T02:28:13.963Z,7.00
2019-03-20T02:29:18.471Z,7.00
2019-03-20T02:30:23.041Z,7.00
2019-03-20T02:31:27.566Z,7.00
2019-03-20T02:32:32.083Z,7.00
2019-03-20T02:33:36.539Z,7.00
2019-03-20T02:34:41.012Z,7.20
2019-03-20T02:35:51.891Z,7.00
2019-03-20T02:36:52.047Z,7.00
2019-03-20T02:37:56.782Z,7.00
2019-03-20T02:39:01.440Z,6.90
2019-03-20T02:40:08.745Z,6.90
2019-03-20T02:41:13.208Z,6.90
2019-03-20T02:42:17.743Z,6.90
2019-03-20T02:43:22.263Z,6.80
2019-03-20T02:44:26.804Z,6.80
2019-03-20T02:45:31.323Z,6.80
2019-03-20T02:46:35.836Z,6.80
2019-03-20T02:47:40.370Z,6.80
2019-03-20T02:48:44.815Z,6.70
2019-03-20T02:49:49.291Z,6.70
2019-03-20T02:50:53.770Z,6.70
2019-03-20T02:51:58.366Z,6.70
2019-03-20T02:53:02.911Z,6.60
2019-03-20T02:54:07.389Z,6.60
2019-03-20T02:55:12.803Z,6.60
2019-03-20T02:56:17.311Z,6.50
2019-03-20T02:57:21.786Z,6.50
2019-03-20T02:58:26.351Z,6.50
2019-03-20T02:59:30.841Z,6.50
2019-03-20T03:00:35.382Z,6.50
2019-03-20T03:01:39.907Z,6.50
2019-03-20T03:02:44.707Z,6.40
2019-03-20T03:03:49.293Z,6.40
2019-03-20T03:04:54.146Z,6.40
2019-03-20T03:06:06.591Z,6.40
2019-03-20T03:07:05.143Z,6.40
2019-03-20T03:08:10.345Z,6.40
2019-03-20T03:09:14.813Z,6.40
2019-03-20T03:10:19.343Z,6.50
2019-03-20T03:11:23.847Z,6.40
2019-03-20T03:12:28.351Z,6.50
2019-03-20T03:13:32.860Z,6.40
2019-03-20T03:14:37.421Z,6.40
2019-03-20T03:15:42.010Z,6.40
2019-03-20T03:16:46.706Z,6.40
2019-03-20T03:17:51.257Z,6.40
2019-03-20T03:18:56.000Z,6.50
2019-03-20T03:20:00.649Z,6.50
2019-03-20T03:21:05.127Z,6.50
2019-03-20T03:22:09.598Z,6.50
2019-03-20T03:23:14.097Z,6.50
2019-03-20T03:24:18.550Z,6.50
2019-03-20T03:25:23.058Z,6.40
2019-03-20T03:26:27.528Z,6.40
2019-03-20T03:27:32.005Z,6.40
2019-03-20T03:28:36.468Z,6.40
2019-03-20T03:29:41.192Z,6.40
2019-03-20T03:30:46.364Z,6.40
2019-03-20T03:31:50.849Z,6.40
2019-03-20T03:32:55.398Z,6.40
2019-03-20T03:33:59.862Z,6.40
2019-03-20T03:35:05.852Z,6.40
2019-03-20T03:36:20.617Z,6.30
2019-03-20T03:37:16.514Z,6.30
2019-03-20T03:38:21.285Z,6.30
2019-03-20T03:39:25.740Z,6.30
2019-03-20T03:40:30.333Z,6.30
2019-03-20T03:41:34.875Z,6.30
2019-03-20T03:42:39.343Z,6.30
2019-03-20T03:43:43.792Z,6.30
2019-03-20T03:44:48.278Z,6.20
2019-03-20T03:45:52.758Z,6.20
2019-03-20T03:46:57.232Z,6.20
2019-03-20T03:48:01.697Z,6.20
2019-03-20T03:49:06.236Z,6.20
2019-03-20T03:50:11.246Z,6.20
2019-03-20T03:51:15.754Z,6.20
2019-03-20T03:52:20.238Z,6.20
2019-03-20T03:53:24.715Z,6.20
2019-03-20T03:54:29.987Z,6.20
2019-03-20T03:55:34.458Z,6.20
2019-03-20T03:56:39.007Z,6.20
2019-03-20T03:57:44.209Z,6.20
2019-03-20T03:58:48.730Z,6.20
2019-03-20T03:59:53.234Z,6.20
2019-03-20T04:00:57.833Z,6.20
2019-03-20T04:02:02.429Z,6.20
2019-03-20T04:03:07.008Z,6.20
2019-03-20T04:04:11.601Z,6.20
2019-03-20T04:05:16.265Z,6.10
2019-03-20T04:06:34.506Z,6.10
2019-03-20T04:07:27.309Z,6.10
2019-03-20T04:08:32.087Z,6.10
2019-03-20T04:09:36.758Z,6.10
2019-03-20T04:10:41.280Z,6.10
2019-03-20T04:11:45.758Z,6.10
2019-03-20T04:12:50.225Z,6.10
2019-03-20T04:13:54.831Z,6.10
2019-03-20T04:14:59.309Z,6.10
2019-03-20T04:16:03.874Z,6.10
2019-03-20T04:17:22.773Z,6.10
2019-03-20T04:18:27.268Z,6.10
2019-03-20T04:19:31.813Z,6.10
2019-03-20T04:20:36.371Z,6.10
2019-03-20T04:21:40.832Z,6.10
2019-03-20T04:22:45.372Z,6.10
2019-03-20T04:23:49.845Z,6.10
2019-03-20T04:24:54.378Z,6.10
2019-03-20T04:25:58.924Z,6.10
2019-03-20T04:27:03.379Z,6.10
2019-03-20T04:28:07.834Z,6.10
2019-03-20T04:29:12.300Z,6.10
2019-03-20T04:30:17.809Z,6.00
2019-03-20T04:31:22.369Z,6.00
2019-03-20T04:32:26.926Z,6.00
2019-03-20T04:33:31.467Z,6.00
2019-03-20T04:34:35.960Z,6.10
2019-03-20T04:35:40.577Z,6.00
2019-03-20T04:36:48.068Z,6.00
2019-03-20T04:37:51.283Z,6.00
2019-03-20T04:38:55.806Z,6.00
2019-03-20T04:40:00.448Z,6.00
2019-03-20T04:41:05.118Z,6.10
2019-03-20T04:42:09.602Z,6.00
2019-03-20T04:43:14.141Z,6.00
2019-03-20T04:44:18.662Z,6.00
2019-03-20T04:45:23.224Z,6.10
2019-03-20T04:46:27.701Z,6.00
2019-03-20T04:47:32.221Z,6.00
2019-03-20T04:48:36.700Z,6.00
2019-03-20T04:49:41.269Z,6.00
2019-03-20T04:50:45.799Z,5.90
2019-03-20T04:51:50.278Z,5.90
2019-03-20T04:52:54.814Z,5.90
2019-03-20T04:53:59.321Z,5.90
2019-03-20T04:55:04.971Z,5.90
2019-03-20T04:56:09.544Z,5.80
2019-03-20T04:57:14.012Z,5.80
2019-03-20T04:58:18.462Z,5.80
2019-03-20T04:59:22.954Z,5.80
2019-03-20T05:00:27.437Z,5.80
2019-03-20T05:01:32.059Z,5.80
2019-03-20T05:02:36.514Z,5.70
2019-03-20T05:03:40.996Z,5.80
2019-03-20T05:04:45.482Z,5.70
2019-03-20T05:05:50.215Z,5.70
2019-03-20T05:06:59.213Z,5.70
2019-03-20T05:08:00.860Z,5.70
2019-03-20T05:09:07.061Z,5.70
2019-03-20T05:10:14.124Z,5.70
2019-03-20T05:11:18.629Z,5.70
2019-03-20T05:12:23.086Z,5.70
2019-03-20T05:13:27.558Z,5.70
2019-03-20T05:14:32.038Z,5.70
2019-03-20T05:15:36.637Z,5.70
2019-03-20T05:16:41.269Z,5.70
2019-03-20T05:17:45.772Z,5.70
2019-03-20T05:18:50.254Z,5.70
2019-03-20T05:19:54.882Z,5.70
2019-03-20T05:20:59.470Z,5.70
2019-03-20T05:22:03.973Z,5.80
2019-03-20T05:23:08.599Z,5.80
2019-03-20T05:24:13.228Z,5.80
2019-03-20T05:25:17.697Z,5.70
2019-03-20T05:26:22.176Z,5.70
2019-03-20T05:27:26.650Z,5.80
2019-03-20T05:28:31.118Z,5.70
2019-03-20T05:29:35.599Z,5.80
2019-03-20T05:30:40.166Z,5.80
2019-03-20T05:31:44.904Z,5.80
2019-03-20T05:32:49.420Z,5.80
2019-03-20T05:33:53.981Z,5.80
2019-03-20T05:34:58.563Z,5.80
2019-03-20T05:36:03.187Z,5.80
2019-03-20T05:37:10.625Z,5.80
2019-03-20T05:38:13.806Z,5.80
2019-03-20T05:39:18.342Z,5.80
2019-03-20T05:40:22.973Z,5.80
2019-03-20T05:41:27.583Z,5.80
2019-03-20T05:42:32.081Z,5.80
2019-03-20T05:43:36.690Z,5.80
2019-03-20T05:44:41.219Z,5.80
2019-03-20T05:45:45.711Z,5.90
2019-03-20T05:46:50.203Z,5.90
2019-03-20T05:47:54.656Z,5.90
2019-03-20T05:48:59.230Z,5.90
2019-03-20T05:50:05.643Z,5.90
2019-03-20T05:51:10.154Z,5.90
2019-03-20T05:52:14.619Z,5.90
2019-03-20T05:53:19.162Z,5.90
2019-03-20T05:54:23.647Z,5.90
2019-03-20T05:55:28.173Z,5.90
2019-03-20T05:56:32.695Z,5.90
2019-03-20T05:57:37.193Z,5.90
2019-03-20T05:58:41.678Z,5.90
2019-03-20T05:59:46.229Z,5.90
2019-03-20T06:00:50.693Z,5.90
2019-03-20T06:01:55.220Z,5.90
2019-03-20T06:02:59.727Z,5.90
2019-03-20T06:04:04.578Z,5.90
2019-03-20T06:05:09.402Z,5.90
2019-03-20T06:06:13.862Z,6.00
2019-03-20T06:07:21.887Z,6.00
2019-03-20T06:08:24.533Z,6.00
2019-03-20T06:09:29.014Z,6.00
2019-03-20T06:10:33.646Z,6.00
2019-03-20T06:11:38.295Z,6.00
2019-03-20T06:12:43.417Z,6.00
2019-03-20T06:13:47.935Z,6.00
2019-03-20T06:14:52.457Z,6.00
2019-03-20T06:15:56.920Z,6.00
2019-03-20T06:17:01.591Z,6.00
2019-03-20T06:18:06.059Z,6.00
2019-03-20T06:19:10.540Z,6.00
2019-03-20T06:20:15.646Z,6.10
2019-03-20T06:21:20.168Z,6.10
2019-03-20T06:22:24.732Z,6.10
2019-03-20T06:23:29.194Z,6.10
2019-03-20T06:24:33.682Z,6.10
2019-03-20T06:25:38.189Z,6.10
2019-03-20T06:26:42.731Z,6.10
2019-03-20T06:27:47.239Z,6.10
2019-03-20T06:28:51.694Z,6.10
2019-03-20T06:29:56.572Z,6.10
2019-03-20T06:31:01.119Z,6.20
2019-03-20T06:32:05.580Z,6.20
2019-03-20T06:33:10.125Z,6.20
2019-03-20T06:34:14.606Z,6.20
2019-03-20T06:35:19.107Z,6.20
2019-03-20T06:36:23.626Z,6.20
2019-03-20T06:37:32.480Z,6.20
2019-03-20T06:38:34.500Z,6.20
2019-03-20T06:39:38.979Z,6.20
2019-03-20T06:40:43.455Z,6.30
2019-03-20T06:41:47.934Z,6.30
2019-03-20T06:42:52.402Z,6.30
2019-03-20T06:43:56.868Z,6.30
2019-03-20T06:45:01.354Z,6.30
2019-03-20T06:46:05.808Z,6.30
2019-03-20T06:47:10.272Z,6.30
2019-03-20T06:48:14.741Z,6.30
2019-03-20T06:49:19.206Z,6.40
2019-03-20T06:50:23.815Z,6.30
2019-03-20T06:51:28.284Z,6.40
2019-03-20T06:52:32.771Z,6.40
2019-03-20T06:53:37.219Z,6.40
2019-03-20T06:54:41.705Z,6.50
2019-03-20T06:55:46.183Z,6.50
2019-03-20T06:56:50.648Z,6.50
2019-03-20T06:57:55.115Z,6.50
2019-03-20T06:59:08.459Z,6.50
2019-03-20T07:00:41.790Z,6.60
2019-03-20T07:01:46.776Z,6.60
2019-03-20T07:02:51.236Z,6.60
2019-03-20T07:04:07.729Z,6.60
2019-03-20T07:05:30.098Z,6.70
2019-03-20T07:06:40.508Z,6.70
2019-03-20T07:07:44.837Z,6.70
2019-03-20T07:09:01.741Z,6.70
2019-03-20T07:10:14.851Z,6.70
2019-03-20T07:11:18.247Z,6.80
2019-03-20T07:12:22.733Z,6.80
2019-03-20T07:13:27.216Z,6.80
2019-03-20T07:14:31.716Z,6.80
2019-03-20T07:15:36.188Z,6.80
2019-03-20T07:16:40.699Z,6.80
2019-03-20T07:17:45.201Z,6.90
2019-03-20T07:18:49.731Z,6.90
2019-03-20T07:19:54.223Z,6.90
2019-03-20T07:20:58.742Z,6.90
2019-03-20T07:22:03.263Z,6.90
2019-03-20T07:23:07.726Z,7.00
2019-03-20T07:24:12.994Z,7.00
2019-03-20T07:25:17.465Z,7.00
2019-03-20T07:26:22.016Z,7.00
2019-03-20T07:27:26.475Z,7.00
2019-03-20T07:28:30.946Z,7.10
2019-03-20T07:29:35.608Z,7.10
2019-03-20T07:30:40.086Z,7.10
2019-03-20T07:31:44.661Z,7.10
2019-03-20T07:32:49.130Z,7.20
2019-03-20T07:33:53.598Z,7.20
2019-03-20T07:34:58.070Z,7.20
2019-03-20T07:36:02.542Z,7.20
2019-03-20T07:37:07.060Z,7.20
2019-03-20T07:38:11.558Z,7.30
2019-03-20T07:39:16.014Z,7.30
2019-03-20T07:40:20.554Z,7.30
2019-03-20T07:41:25.083Z,7.30
2019-03-20T07:42:29.589Z,7.40
2019-03-20T07:43:34.130Z,7.40
2019-03-20T07:44:38.597Z,7.40
2019-03-20T07:45:43.066Z,7.40
2019-03-20T07:46:47.534Z,7.40
2019-03-20T07:47:52.005Z,7.50
2019-03-20T07:48:56.494Z,7.50
2019-03-20T07:50:00.966Z,7.70
2019-03-20T07:51:05.514Z,7.60
2019-03-20T07:52:09.981Z,7.60
2019-03-20T07:53:14.438Z,7.60
2019-03-20T07:54:18.918Z,7.70
2019-03-20T07:55:23.451Z,7.70
2019-03-20T07:56:27.904Z,7.70
2019-03-20T07:57:32.387Z,7.80
2019-03-20T07:58:36.882Z,7.80
2019-03-20T07:59:41.519Z,7.90
2019-03-20T08:00:46.041Z,7.90
2019-03-20T08:01:50.516Z,8.00
2019-03-20T08:02:55.054Z,8.00
2019-03-20T08:03:59.584Z,8.10
2019-03-20T08:05:05.608Z,8.10
2019-03-20T08:06:10.099Z,8.20
2019-03-20T08:07:14.677Z,8.20
2019-03-20T08:08:19.136Z,8.30
2019-03-20T08:09:25.654Z,8.40
2019-03-20T08:10:30.026Z,8.40
2019-03-20T08:11:34.504Z,8.50
2019-03-20T08:12:38.962Z,8.60
2019-03-20T08:13:43.439Z,8.60
2019-03-20T08:14:47.917Z,8.70
2019-03-20T08:15:52.404Z,8.80
2019-03-20T08:16:56.890Z,8.90
2019-03-20T08:18:01.351Z,9.00
2019-03-20T08:19:05.822Z,9.10
2019-03-20T08:20:16.265Z,9.20
2019-03-20T08:21:20.811Z,9.30
2019-03-20T08:22:25.492Z,9.40
2019-03-20T08:23:29.966Z,9.50
2019-03-20T08:24:34.456Z,9.60
2019-03-20T08:25:38.970Z,9.80
2019-03-20T08:26:43.470Z,9.90
2019-03-20T08:27:47.941Z,10.00
2019-03-20T08:28:52.494Z,10.10
2019-03-20T08:29:56.972Z,10.20
2019-03-20T08:31:01.464Z,10.30
2019-03-20T08:32:06.076Z,10.40
2019-03-20T08:33:10.568Z,10.50
2019-03-20T08:34:15.246Z,10.60
2019-03-20T08:35:19.717Z,10.80
2019-03-20T08:36:24.250Z,10.90
2019-03-20T08:37:28.743Z,11.00
2019-03-20T08:38:33.218Z,11.10
2019-03-20T08:39:37.704Z,11.30
2019-03-20T08:40:42.175Z,11.40
2019-03-20T08:41:46.684Z,11.50
2019-03-20T08:42:51.212Z,11.60
2019-03-20T08:43:55.711Z,11.70
2019-03-20T08:45:00.410Z,11.90
2019-03-20T08:46:04.931Z,12.00
2019-03-20T08:47:09.588Z,12.10
2019-03-20T08:48:14.074Z,12.30
2019-03-20T08:49:18.591Z,12.40
2019-03-20T08:50:26.532Z,12.60
2019-03-20T08:51:31.183Z,12.70
2019-03-20T08:52:35.692Z,12.90
2019-03-20T08:53:40.188Z,13.10
2019-03-20T08:54:44.670Z,13.30
2019-03-20T08:55:49.148Z,13.50
2019-03-20T08:56:53.633Z,13.70
2019-03-20T08:57:58.118Z,14.00
2019-03-20T08:59:02.579Z,14.20
2019-03-20T09:00:15.942Z,14.50
2019-03-20T09:01:28.549Z,14.70
2019-03-20T09:02:27.368Z,15.00
2019-03-20T09:03:31.946Z,15.30
2019-03-20T09:04:36.533Z,15.50
2019-03-20T09:05:41.060Z,15.90
2019-03-20T09:06:45.559Z,16.10
2019-03-20T09:07:50.054Z,16.40
2019-03-20T09:08:54.633Z,16.70
2019-03-20T09:09:59.104Z,17.00
2019-03-20T09:11:03.896Z,17.30
2019-03-20T09:12:08.619Z,17.60
2019-03-20T09:13:13.092Z,17.80
2019-03-20T09:14:17.618Z,18.10
2019-03-20T09:15:22.902Z,18.40
2019-03-20T09:16:27.447Z,18.60
2019-03-20T09:17:31.960Z,18.90
2019-03-20T09:18:36.589Z,19.10
2019-03-20T09:19:41.068Z,19.30
2019-03-20T09:20:45.856Z,19.60
2019-03-20T09:21:50.416Z,19.80
2019-03-20T09:22:54.878Z,20.00
2019-03-20T09:23:59.376Z,20.20
2019-03-20T09:25:06.050Z,20.40
2019-03-20T09:26:10.618Z,20.60
2019-03-20T09:27:15.169Z,20.70
2019-03-20T09:28:19.656Z,20.90
2019-03-20T09:29:24.209Z,21.10
2019-03-20T09:30:30.382Z,21.30
2019-03-20T09:31:35.084Z,21.40
2019-03-20T09:32:39.553Z,21.60
2019-03-20T09:33:44.126Z,21.70
2019-03-20T09:34:48.867Z,21.80
2019-03-20T09:35:53.390Z,22.00
2019-03-20T09:36:57.851Z,22.10
2019-03-20T09:38:02.405Z,22.30
2019-03-20T09:39:07.997Z,22.40
2019-03-20T09:40:14.622Z,22.50
2019-03-20T09:41:19.103Z,22.60
2019-03-20T09:42:23.572Z,22.80
2019-03-20T09:43:28.082Z,22.90
2019-03-20T09:44:32.582Z,23.00
2019-03-20T09:45:37.120Z,23.20
2019-03-20T09:46:41.617Z,23.30
2019-03-20T09:47:46.153Z,23.40
2019-03-20T09:48:50.622Z,23.50
2019-03-20T09:49:55.104Z,23.60
2019-03-20T09:50:59.746Z,23.70
2019-03-20T09:52:04.426Z,23.80
2019-03-20T09:53:08.952Z,23.90
2019-03-20T09:54:13.479Z,23.90
2019-03-20T09:55:18.044Z,24.10
2019-03-20T09:56:22.536Z,24.10
2019-03-20T09:57:27.043Z,24.20
2019-03-20T09:58:31.818Z,24.30
2019-03-20T09:59:36.332Z,24.40
2019-03-20T10:00:40.846Z,24.40
2019-03-20T10:01:45.383Z,24.50
2019-03-20T10:02:50.028Z,24.60
2019-03-20T10:03:54.518Z,24.80
2019-03-20T10:04:59.058Z,24.90
2019-03-20T10:06:03.538Z,25.00
2019-03-20T10:07:08.036Z,25.10
2019-03-20T10:08:12.530Z,25.20
2019-03-20T10:09:16.995Z,25.40
2019-03-20T10:10:22.842Z,25.50
2019-03-20T10:11:27.334Z,25.70
2019-03-20T10:12:31.818Z,25.90
2019-03-20T10:13:36.324Z,26.00
2019-03-20T10:14:40.899Z,26.10
2019-03-20T10:15:45.452Z,26.20
2019-03-20T10:16:49.919Z,26.40
2019-03-20T10:17:54.732Z,26.50
2019-03-20T10:18:59.244Z,26.60
2019-03-20T10:20:05.271Z,26.70
2019-03-20T10:21:09.803Z,26.80
2019-03-20T10:22:14.334Z,26.90
2019-03-20T10:23:18.816Z,27.00
2019-03-20T10:24:23.308Z,27.00
2019-03-20T10:25:27.849Z,27.10
2019-03-20T10:26:32.376Z,27.20
2019-03-20T10:27:36.906Z,27.20
2019-03-20T10:28:41.519Z,27.30
2019-03-20T10:29:45.988Z,27.30
2019-03-20T10:30:50.478Z,27.40
2019-03-20T10:31:55.094Z,27.50
2019-03-20T10:32:59.595Z,27.60
2019-03-20T10:34:04.178Z,27.70
2019-03-20T10:35:09.711Z,27.70
2019-03-20T10:36:14.203Z,27.80
2019-03-20T10:37:18.708Z,27.90
2019-03-20T10:38:23.216Z,28.00
2019-03-20T10:39:27.670Z,28.10
2019-03-20T10:40:32.264Z,28.20
2019-03-20T10:41:36.766Z,28.20
2019-03-20T10:42:41.279Z,28.30
2019-03-20T10:43:45.781Z,28.30
2019-03-20T10:44:50.261Z,28.30
2019-03-20T10:45:54.902Z,28.20
2019-03-20T10:46:59.390Z,28.20
2019-03-20T10:48:03.929Z,28.10
2019-03-20T10:49:08.414Z,28.00
2019-03-20T10:50:24.559Z,28.00
2019-03-20T10:51:29.061Z,28.00
2019-03-20T10:52:33.675Z,28.00
2019-03-20T10:53:38.483Z,27.90
2019-03-20T10:54:42.953Z,27.90
2019-03-20T10:55:47.460Z,27.90
2019-03-20T10:56:51.922Z,27.90
2019-03-20T10:57:56.400Z,27.80
2019-03-20T10:59:00.898Z,27.80
2019-03-20T11:00:11.404Z,27.70
2019-03-20T11:01:15.938Z,27.70
2019-03-20T11:02:20.509Z,27.60
2019-03-20T11:03:25.077Z,27.60
2019-03-20T11:04:29.647Z,27.60
2019-03-20T11:05:34.171Z,27.50
2019-03-20T11:06:38.838Z,27.50
2019-03-20T11:07:43.391Z,27.40
2019-03-20T11:08:48.030Z,27.40
2019-03-20T11:09:52.580Z,27.40
2019-03-20T11:10:57.046Z,27.30
2019-03-20T11:12:01.970Z,27.40
2019-03-20T11:13:06.505Z,27.40
2019-03-20T11:14:11.052Z,27.50
2019-03-20T11:15:17.286Z,27.50
2019-03-20T11:16:21.760Z,27.70
2019-03-20T11:17:26.420Z,27.80
2019-03-20T11:18:30.912Z,27.90
2019-03-20T11:19:35.478Z,28.00
2019-03-20T11:20:39.970Z,28.10
2019-03-20T11:21:44.525Z,28.20
2019-03-20T11:22:49.070Z,28.30
2019-03-20T11:23:53.602Z,28.50
2019-03-20T11:24:58.319Z,28.60
2019-03-20T11:26:02.783Z,28.80
2019-03-20T11:27:07.354Z,28.90
2019-03-20T11:28:11.934Z,29.00
2019-03-20T11:29:21.494Z,29.20
2019-03-20T11:30:24.783Z,29.30
2019-03-20T11:31:29.285Z,29.50
2019-03-20T11:32:34.681Z,29.60
2019-03-20T11:33:39.152Z,29.80
2019-03-20T11:34:43.628Z,30.00
2019-03-20T11:35:48.276Z,30.10
2019-03-20T11:36:53.787Z,30.20
2019-03-20T11:37:58.331Z,30.30
2019-03-20T11:39:03.299Z,30.40
2019-03-20T11:40:31.491Z,30.50
2019-03-20T11:41:35.970Z,30.60
2019-03-20T11:42:40.873Z,30.80
2019-03-20T11:43:45.584Z,30.90
2019-03-20T11:44:50.062Z,31.00
2019-03-20T11:45:54.767Z,31.10
2019-03-20T11:46:59.236Z,31.20
2019-03-20T11:49:07.808Z,31.50
2019-03-20T11:50:21.013Z,31.60
2019-03-20T11:51:25.498Z,31.70
2019-03-20T11:52:30.295Z,31.80
2019-03-20T11:53:34.815Z,31.90
2019-03-20T11:54:39.627Z,32.00
2019-03-20T11:55:44.129Z,32.10
2019-03-20T11:56:48.589Z,32.10
2019-03-20T11:57:53.161Z,32.20
2019-03-20T11:58:57.660Z,32.20
2019-03-20T12:00:02.139Z,32.30
2019-03-20T12:01:06.671Z,32.30
2019-03-20T12:02:11.164Z,32.30
2019-03-20T12:03:15.636Z,32.30
2019-03-20T12:04:20.218Z,32.40
2019-03-20T12:05:24.702Z,32.40
2019-03-20T12:06:29.268Z,32.40
2019-03-20T12:07:33.773Z,32.40
2019-03-20T12:08:38.382Z,32.50
2019-03-20T12:09:42.984Z,32.50
2019-03-20T12:10:47.573Z,32.50
2019-03-20T12:11:52.093Z,32.50
2019-03-20T12:12:56.650Z,32.50
2019-03-20T12:14:01.125Z,32.50
2019-03-20T12:15:09.055Z,32.50
2019-03-20T12:16:13.558Z,32.50
2019-03-20T12:17:20.179Z,32.50
2019-03-20T12:18:24.277Z,32.50
2019-03-20T12:19:28.827Z,32.50
2019-03-20T12:20:33.314Z,32.50
2019-03-20T12:21:37.806Z,32.50
2019-03-20T12:22:42.776Z,32.50
2019-03-20T12:23:47.260Z,32.50
2019-03-20T12:24:51.843Z,32.50
2019-03-20T12:25:56.337Z,32.40
2019-03-20T12:27:00.816Z,32.40
2019-03-20T12:28:05.657Z,32.30
2019-03-20T12:29:10.124Z,32.20
2019-03-20T12:30:20.222Z,32.10
2019-03-20T12:31:24.710Z,32.00
2019-03-20T12:32:29.189Z,32.00
2019-03-20T12:33:33.748Z,31.90
2019-03-20T12:34:38.254Z,31.90
2019-03-20T12:35:48.621Z,31.90
2019-03-20T12:36:53.422Z,31.90
2019-03-20T12:37:57.923Z,31.90
2019-03-20T12:39:02.406Z,31.90
2019-03-20T12:40:12.815Z,31.90
2019-03-20T12:41:17.320Z,31.90
2019-03-20T12:42:21.806Z,31.90
2019-03-20T12:43:27.273Z,32.00
2019-03-20T12:44:31.738Z,32.00
2019-03-20T12:45:37.558Z,32.10
2019-03-20T12:46:42.348Z,32.10
2019-03-20T12:47:46.984Z,32.20
2019-03-20T12:48:51.571Z,32.20
2019-03-20T12:49:56.034Z,32.30
2019-03-20T12:51:00.530Z,32.30
2019-03-20T12:52:05.218Z,32.40
2019-03-20T12:53:15.616Z,32.40
2019-03-20T12:54:20.085Z,32.40
2019-03-20T12:55:24.919Z,32.50
2019-03-20T12:56:29.431Z,32.50
2019-03-20T12:57:34.142Z,32.60
2019-03-20T12:58:38.639Z,32.70
2019-03-20T12:59:43.112Z,32.70
2019-03-20T13:01:51.652Z,32.80
2019-03-20T13:02:56.221Z,32.90
2019-03-20T13:04:00.682Z,33.00
2019-03-20T13:05:08.620Z,33.00
2019-03-20T13:06:13.099Z,33.10
2019-03-20T13:07:17.572Z,33.10
2019-03-20T13:08:22.215Z,33.10
2019-03-20T13:09:26.684Z,33.20
2019-03-20T13:10:31.165Z,33.20
2019-03-20T13:11:35.661Z,33.30
2019-03-20T13:12:40.187Z,33.40
2019-03-20T13:13:44.697Z,33.40
2019-03-20T13:14:49.262Z,33.50
2019-03-20T13:15:53.744Z,33.50
2019-03-20T13:16:58.348Z,33.50
2019-03-20T13:22:19.690Z,33.70
2019-03-20T13:23:32.820Z,33.70
2019-03-20T13:24:37.301Z,33.70
2019-03-20T13:25:41.870Z,33.70
2019-03-20T13:26:46.330Z,33.70
2019-03-20T13:27:50.816Z,33.80
2019-03-20T13:28:55.325Z,33.80
2019-03-20T13:29:59.933Z,33.80
2019-03-20T13:31:13.861Z,33.80
2019-03-20T13:32:18.454Z,33.80
2019-03-20T13:33:25.924Z,33.80
2019-03-20T13:34:29.198Z,33.80
2019-03-20T13:36:37.885Z,33.90
2019-03-20T13:37:42.407Z,33.90
2019-03-20T13:38:46.900Z,33.90
2019-03-20T13:39:51.555Z,33.90
2019-03-20T13:40:56.259Z,33.90
2019-03-20T13:42:00.717Z,34.00
2019-03-20T13:43:05.253Z,34.00
2019-03-20T13:44:09.731Z,34.00
2019-03-20T13:45:27.836Z,34.00
2019-03-20T13:46:33.010Z,34.00
2019-03-20T13:47:37.554Z,34.10
2019-03-20T13:48:42.108Z,34.10
2019-03-20T13:49:46.615Z,34.00
2019-03-20T13:50:51.114Z,34.10
2019-03-20T13:51:55.654Z,34.10
2019-03-20T13:53:00.132Z,34.00
2019-03-20T13:54:05.116Z,34.00
2019-03-20T13:55:11.760Z,34.10
2019-03-20T13:56:16.245Z,34.00
2019-03-20T13:57:20.777Z,34.00
2019-03-20T13:58:25.302Z,34.00
2019-03-20T13:59:29.788Z,34.00
2019-03-20T14:00:34.348Z,34.00
2019-03-20T14:01:38.836Z,34.00
2019-03-20T14:02:43.345Z,34.00
2019-03-20T14:03:47.831Z,33.90
2019-03-20T14:04:52.318Z,33.80
2019-03-20T14:05:57.023Z,33.80
2019-03-20T14:07:01.491Z,33.70
2019-03-20T14:08:06.411Z,33.60
2019-03-20T14:09:10.947Z,33.50
2019-03-20T14:10:27.677Z,33.30
2019-03-20T14:11:32.207Z,33.20
2019-03-20T14:12:36.686Z,33.00
2019-03-20T14:13:41.185Z,32.80
2019-03-20T14:14:45.704Z,32.70
2019-03-20T14:15:50.171Z,32.50
2019-03-20T14:16:54.648Z,32.30
2019-03-20T14:17:59.116Z,32.20
2019-03-20T14:19:03.603Z,32.00
2019-03-20T14:20:13.985Z,31.90